Time;durP1;ratioP1;P1;durP2;ratioP2;P2;SDS_P1;SDS_P2;PMS_P1;PMS_P2;Temp;Humidity;BMP_temperature;BMP_pressure;BME280_temperature;BME280_humidity;BME280_pressure;Samples;Min_cycle;Max_cycle;Signal;HPM_P1;HPM_P2
2021/01/26 00:00:59;;;;;;;24.48;10.02;;;4.70;99.90;;;;;;5030074;28;20079;-72
2021/01/26 00:03:25;;;;;;;27.10;10.13;;;4.70;99.90;;;;;;5047154;28;20024;-72
2021/01/26 00:05:51;;;;;;;27.08;11.43;;;4.70;99.90;;;;;;5048896;28;20035;-72
2021/01/26 00:08:19;;;;;;;24.83;8.05;;;4.60;99.90;;;;;;5046229;28;20040;-72
2021/01/26 00:10:44;;;;;;;23.83;8.30;;;4.60;99.90;;;;;;5049040;28;20079;-71
2021/01/26 00:13:10;;;;;;;20.30;8.23;;;4.70;99.90;;;;;;5044961;28;20063;-71
2021/01/26 00:15:36;;;;;;;19.30;9.15;;;4.70;99.90;;;;;;5048352;28;20070;-72
2021/01/26 00:18:03;;;;;;;21.38;8.93;;;4.70;99.90;;;;;;5032990;28;20072;-71
2021/01/26 00:20:29;;;;;;;21.95;8.70;;;4.80;99.90;;;;;;5045060;28;20083;-72
2021/01/26 00:22:55;;;;;;;25.40;7.32;;;4.70;99.90;;;;;;5043677;28;20029;-71
2021/01/26 00:25:31;;;;;;;26.27;9.15;;;4.70;99.90;;;;;;5047635;28;20021;-72
2021/01/26 00:27:56;;;;;;;23.55;8.52;;;4.70;99.90;;;;;;5046998;28;20033;-71
2021/01/26 00:30:27;;;;;;;25.55;8.48;;;4.70;99.90;;;;;;5045517;28;20093;-71
2021/01/26 00:32:52;;;;;;;24.83;8.45;;;4.70;99.90;;;;;;5041911;28;20021;-72
2021/01/26 00:35:22;;;;;;;24.30;7.78;;;4.80;99.90;;;;;;5046862;28;20021;-71
2021/01/26 00:37:47;;;;;;;23.02;7.90;;;4.80;99.90;;;;;;5038483;28;20033;-71
2021/01/26 00:40:15;;;;;;;20.58;7.40;;;4.80;99.90;;;;;;5044895;28;20029;-71
2021/01/26 00:42:40;;;;;;;19.27;6.55;;;4.80;99.90;;;;;;5045759;28;20044;-71
2021/01/26 00:45:07;;;;;;;23.70;7.95;;;4.70;99.90;;;;;;5049781;28;20017;-72
2021/01/26 00:47:33;;;;;;;20.27;6.70;;;4.70;99.90;;;;;;5043724;28;20029;-71
2021/01/26 00:49:59;;;;;;;16.15;6.13;;;4.80;99.90;;;;;;5047869;28;20032;-71
2021/01/26 00:52:25;;;;;;;17.55;6.15;;;4.80;99.90;;;;;;5044552;28;20390;-71
2021/01/26 00:54:50;;;;;;;21.33;6.82;;;4.80;99.90;;;;;;5039005;28;20029;-71
2021/01/26 00:57:19;;;;;;;15.55;5.32;;;4.90;99.90;;;;;;5045885;28;20028;-72
2021/01/26 00:59:49;;;;;;;14.90;4.45;;;4.80;99.90;;;;;;5044996;28;20065;-72
2021/01/26 01:02:16;;;;;;;18.17;4.78;;;4.90;99.90;;;;;;5042246;28;20055;-71
2021/01/26 01:04:43;;;;;;;17.20;4.70;;;4.90;99.90;;;;;;5028723;28;20029;-71
2021/01/26 01:07:09;;;;;;;24.75;4.60;;;4.90;99.90;;;;;;5030334;28;20171;-71
2021/01/26 01:09:34;;;;;;;14.98;4.72;;;5.00;99.90;;;;;;5039803;28;20116;-71
2021/01/26 01:12:00;;;;;;;13.50;4.30;;;4.90;99.90;;;;;;5046258;28;20112;-71
2021/01/26 01:14:26;;;;;;;10.73;4.13;;;4.90;99.90;;;;;;5048734;28;20037;-71
2021/01/26 01:16:53;;;;;;;18.45;4.55;;;5.00;99.90;;;;;;5029484;28;20397;-72
2021/01/26 01:19:19;;;;;;;13.88;4.80;;;5.00;99.90;;;;;;5027665;28;20108;-71
2021/01/26 01:21:44;;;;;;;16.45;4.25;;;5.00;99.90;;;;;;5042256;28;20108;-71
2021/01/26 01:24:10;;;;;;;17.23;4.75;;;4.90;99.90;;;;;;5032717;28;20032;-71
2021/01/26 01:26:36;;;;;;;16.45;4.25;;;5.00;99.90;;;;;;5048563;28;20040;-71
2021/01/26 01:29:02;;;;;;;11.55;4.32;;;5.00;99.90;;;;;;5041945;28;20203;-71
2021/01/26 01:31:28;;;;;;;19.77;4.90;;;5.00;99.90;;;;;;5049663;28;20025;-71
2021/01/26 01:33:54;;;;;;;9.95;4.57;;;5.00;99.90;;;;;;5049478;28;20086;-71
2021/01/26 01:36:19;;;;;;;19.88;4.68;;;5.00;99.90;;;;;;5050108;28;20021;-72
2021/01/26 01:38:45;;;;;;;14.35;4.97;;;5.00;99.90;;;;;;5046401;28;20064;-71
2021/01/26 01:41:11;;;;;;;11.65;4.50;;;5.00;99.90;;;;;;5048029;28;20482;-71
2021/01/26 01:43:37;;;;;;;18.95;4.55;;;4.90;99.90;;;;;;5053616;28;20029;-71
2021/01/26 01:46:08;;;;;;;13.95;4.13;;;5.00;99.90;;;;;;5052563;28;20028;-71
2021/01/26 01:48:35;;;;;;;16.98;4.30;;;5.00;99.90;;;;;;5051152;28;20060;-71
2021/01/26 01:51:06;;;;;;;13.07;4.43;;;5.00;99.90;;;;;;5051438;28;20084;-71
2021/01/26 01:53:38;;;;;;;18.33;4.05;;;5.00;99.90;;;;;;5052469;28;20096;-71
2021/01/26 01:56:28;;;;;;;15.60;4.47;;;4.90;99.90;;;;;;5050301;28;20040;-71
2021/01/26 01:59:00;;;;;;;9.70;4.05;;;5.00;99.90;;;;;;5046299;28;20030;-71
2021/01/26 02:01:29;;;;;;;14.98;4.30;;;4.90;99.90;;;;;;5051026;28;20139;-71
2021/01/26 02:03:59;;;;;;;16.23;4.22;;;4.90;99.90;;;;;;5049060;28;20021;-71
2021/01/26 02:06:32;;;;;;;15.73;4.07;;;5.00;99.90;;;;;;5053631;28;20485;-71
2021/01/26 02:09:08;;;;;;;12.18;3.33;;;5.00;99.90;;;;;;5048906;28;20029;-71
2021/01/26 02:11:34;;;;;;;17.55;4.80;;;5.00;99.90;;;;;;5050782;28;20856;-71
2021/01/26 02:14:00;;;;;;;13.32;3.50;;;5.00;99.90;;;;;;5047893;28;20415;-71
2021/01/26 02:16:29;;;;;;;18.10;3.63;;;5.00;99.90;;;;;;5053616;28;20021;-72
2021/01/26 02:19:32;;;;;;;16.10;4.00;;;5.00;99.90;;;;;;5048867;28;20529;-71
2021/01/26 02:22:09;;;;;;;16.50;3.90;;;5.10;99.90;;;;;;5045235;28;20035;-71
2021/01/26 02:25:08;;;;;;;22.48;3.75;;;5.10;99.90;;;;;;5049669;28;20028;-71
2021/01/26 02:28:07;;;;;;;13.18;3.65;;;5.10;99.90;;;;;;5048749;28;20048;-71
2021/01/26 02:31:06;;;;;;;17.25;3.78;;;5.10;99.90;;;;;;5048543;28;20048;-71
2021/01/26 02:33:35;;;;;;;14.90;3.50;;;5.20;99.90;;;;;;5045459;28;20366;-71
2021/01/26 02:36:32;;;;;;;16.13;3.40;;;5.20;99.90;;;;;;5046096;28;20051;-71
2021/01/26 02:39:22;;;;;;;8.93;2.90;;;5.10;99.90;;;;;;5040038;28;20029;-71
2021/01/26 02:41:52;;;;;;;16.83;3.10;;;5.30;99.90;;;;;;5049236;28;20040;-72
2021/01/26 02:44:38;;;;;;;17.48;3.28;;;5.10;99.90;;;;;;5044126;28;20029;-72
2021/01/26 02:47:21;;;;;;;19.95;4.07;;;5.20;99.90;;;;;;5044860;28;20367;-72
2021/01/26 02:50:00;;;;;;;13.75;2.95;;;5.20;99.90;;;;;;5043859;28;20033;-72
2021/01/26 02:52:34;;;;;;;16.23;3.88;;;5.20;99.90;;;;;;5043892;28;20047;-72
2021/01/26 02:55:10;;;;;;;14.70;4.13;;;5.20;99.90;;;;;;5046938;28;20033;-72
2021/01/26 02:57:40;;;;;;;13.52;3.60;;;5.20;99.90;;;;;;5046622;28;20017;-72
2021/01/26 03:00:19;;;;;;;10.70;3.05;;;5.20;99.90;;;;;;5043184;28;20036;-71
2021/01/26 03:03:00;;;;;;;11.73;3.70;;;5.20;99.90;;;;;;5047144;28;20239;-71
2021/01/26 03:05:38;;;;;;;23.27;3.72;;;5.20;99.90;;;;;;5040475;28;20060;-72
2021/01/26 03:08:08;;;;;;;14.82;4.07;;;5.20;99.90;;;;;;5045156;28;20041;-72
2021/01/26 03:10:41;;;;;;;17.08;4.13;;;5.20;99.90;;;;;;5048531;28;20040;-72
2021/01/26 03:13:10;;;;;;;22.08;4.57;;;5.20;99.90;;;;;;5047324;28;20021;-72
2021/01/26 03:15:43;;;;;;;18.08;3.78;;;5.20;99.90;;;;;;5046257;28;20033;-71
2021/01/26 03:18:14;;;;;;;18.88;4.50;;;5.30;99.90;;;;;;5029978;28;20025;-72
2021/01/26 03:21:01;;;;;;;19.17;3.92;;;5.20;99.90;;;;;;5048521;28;20017;-72
2021/01/26 03:23:35;;;;;;;14.65;3.63;;;5.30;99.90;;;;;;5046141;28;20527;-72
2021/01/26 03:26:03;;;;;;;11.95;3.28;;;5.30;99.90;;;;;;5047790;28;20037;-71
2021/01/26 03:28:29;;;;;;;11.63;3.50;;;5.30;99.90;;;;;;5044463;28;20040;-72
2021/01/26 03:30:59;;;;;;;10.45;3.30;;;5.20;99.90;;;;;;5049635;28;20103;-72
2021/01/26 03:33:36;;;;;;;21.55;4.10;;;5.20;99.90;;;;;;5047702;28;20478;-72
2021/01/26 03:36:03;;;;;;;20.23;4.03;;;5.20;99.90;;;;;;5048498;28;20563;-72
2021/01/26 03:38:31;;;;;;;19.95;4.30;;;5.20;99.90;;;;;;5046310;28;20076;-72
2021/01/26 03:41:01;;;;;;;18.35;4.20;;;5.30;99.90;;;;;;5046311;28;20036;-71
2021/01/26 03:43:26;;;;;;;19.15;4.80;;;5.20;99.90;;;;;;5047275;28;20064;-72
2021/01/26 03:46:14;;;;;;;14.43;3.80;;;5.20;99.90;;;;;;5046539;28;20059;-71
2021/01/26 03:49:07;;;;;;;14.15;3.53;;;5.20;99.90;;;;;;5045701;28;20037;-72
2021/01/26 03:52:06;;;;;;;17.17;4.15;;;5.20;99.90;;;;;;5046925;28;20060;-72
2021/01/26 03:54:34;;;;;;;16.13;3.63;;;5.20;99.90;;;;;;5046418;28;20037;-72
2021/01/26 03:57:19;;;;;;;15.60;3.83;;;5.20;99.90;;;;;;5047309;28;20025;-72
2021/01/26 04:00:09;;;;;;;15.88;3.70;;;5.20;99.90;;;;;;5046446;28;20024;-72
2021/01/26 04:02:45;;;;;;;15.45;3.92;;;5.20;99.90;;;;;;5044452;28;20040;-72
2021/01/26 04:05:16;;;;;;;11.05;3.35;;;5.20;99.90;;;;;;5046929;28;20024;-71
2021/01/26 04:07:48;;;;;;;14.48;3.75;;;5.10;99.90;;;;;;5050377;28;20091;-71
2021/01/26 04:10:23;;;;;;;15.90;3.17;;;5.20;99.90;;;;;;5039684;28;20119;-72
2021/01/26 04:12:57;;;;;;;19.30;3.78;;;5.20;99.90;;;;;;5046026;28;20068;-72
2021/01/26 04:15:29;;;;;;;14.02;3.80;;;5.10;99.90;;;;;;5042905;28;20108;-72
2021/01/26 04:17:55;;;;;;;14.52;3.20;;;5.10;99.90;;;;;;5047338;28;20500;-72
2021/01/26 04:20:22;;;;;;;16.80;3.22;;;5.10;99.90;;;;;;5026032;28;20021;-72
2021/01/26 04:22:57;;;;;;;16.05;3.13;;;5.10;99.90;;;;;;5026935;28;20030;-72
2021/01/26 04:25:35;;;;;;;17.85;3.58;;;5.20;99.90;;;;;;5049802;28;20624;-71
2021/01/26 04:28:04;;;;;;;20.98;3.47;;;5.20;99.90;;;;;;5047502;28;20494;-71
2021/01/26 04:30:30;;;;;;;22.60;3.35;;;5.20;99.90;;;;;;5040715;28;20096;-72
2021/01/26 04:33:04;;;;;;;14.55;2.90;;;5.20;99.90;;;;;;5046650;28;20108;-72
2021/01/26 04:35:30;;;;;;;12.13;3.15;;;5.20;99.90;;;;;;5049344;28;20028;-72
2021/01/26 04:37:56;;;;;;;19.80;2.83;;;5.20;99.90;;;;;;5048572;28;20029;-71
2021/01/26 04:40:23;;;;;;;19.23;3.50;;;5.20;99.90;;;;;;5041908;28;20025;-71
2021/01/26 04:43:06;;;;;;;17.55;3.67;;;5.20;99.90;;;;;;5048166;28;20025;-71
2021/01/26 04:45:36;;;;;;;14.25;3.42;;;5.30;99.90;;;;;;5027433;28;20049;-71
2021/01/26 04:48:10;;;;;;;19.48;3.92;;;5.40;99.90;;;;;;5046886;28;20075;-71
2021/01/26 04:50:51;;;;;;;21.75;4.13;;;5.30;99.90;;;;;;5046324;28;20021;-70
2021/01/26 04:53:36;;;;;;;15.82;2.85;;;5.30;99.90;;;;;;5038711;28;20055;-72
2021/01/26 04:56:22;;;;;;;18.25;3.28;;;5.20;99.90;;;;;;5047782;28;20405;-71
2021/01/26 04:59:13;;;;;;;12.57;3.50;;;5.30;99.90;;;;;;5042444;28;20376;-72
2021/01/26 05:02:03;;;;;;;20.40;4.15;;;5.20;99.90;;;;;;5049243;28;20025;-72
2021/01/26 05:04:35;;;;;;;21.15;3.85;;;5.20;99.90;;;;;;5042647;28;20017;-71
2021/01/26 05:07:12;;;;;;;14.70;3.58;;;5.20;99.90;;;;;;5047759;28;20112;-72
2021/01/26 05:10:18;;;;;;;17.20;3.92;;;5.20;99.90;;;;;;5044099;28;20029;-72
2021/01/26 05:12:53;;;;;;;22.55;3.92;;;5.20;99.90;;;;;;5020621;28;20037;-72
2021/01/26 05:15:24;;;;;;;23.30;4.28;;;5.20;99.90;;;;;;5052782;28;20033;-72
2021/01/26 05:18:24;;;;;;;13.52;2.92;;;5.30;99.90;;;;;;5048823;28;20482;-71
2021/01/26 05:20:57;;;;;;;19.35;3.75;;;5.30;99.90;;;;;;5024832;28;20486;-72
2021/01/26 05:23:28;;;;;;;18.48;4.47;;;5.20;99.90;;;;;;5049820;28;20017;-71
2021/01/26 05:25:55;;;;;;;13.17;3.50;;;5.20;99.90;;;;;;5052841;28;20036;-72
2021/01/26 05:28:21;;;;;;;16.80;4.38;;;5.20;99.90;;;;;;5043999;28;20068;-71
2021/01/26 05:31:05;;;;;;;12.13;3.22;;;5.50;99.90;;;;;;5052947;28;20025;-71
2021/01/26 05:33:32;;;;;;;15.35;3.17;;;5.30;99.90;;;;;;5046870;28;20028;-72
2021/01/26 05:36:01;;;;;;;12.48;3.58;;;5.30;99.90;;;;;;5051732;28;20469;-71
2021/01/26 05:38:27;;;;;;;14.20;3.00;;;5.30;99.90;;;;;;5044550;28;20025;-72
2021/01/26 05:40:56;;;;;;;16.83;3.78;;;5.30;99.90;;;;;;5052312;28;20534;-71
2021/01/26 05:43:27;;;;;;;16.55;3.35;;;5.30;99.90;;;;;;5048282;28;20033;-71
2021/01/26 05:45:59;;;;;;;18.75;3.95;;;5.30;99.90;;;;;;5050068;28;20492;-71
2021/01/26 05:48:26;;;;;;;15.30;3.25;;;5.40;99.90;;;;;;5034891;28;20447;-72
2021/01/26 05:51:15;;;;;;;23.90;4.18;;;5.40;99.90;;;;;;5050219;28;20033;-72
2021/01/26 05:53:41;;;;;;;14.82;2.97;;;5.40;99.90;;;;;;5044521;28;20059;-71
2021/01/26 05:56:17;;;;;;;12.50;3.33;;;5.30;99.90;;;;;;5049326;28;20103;-71
2021/01/26 05:58:47;;;;;;;17.60;4.18;;;5.30;99.90;;;;;;5044161;28;20036;-71
2021/01/26 06:01:25;;;;;;;10.50;3.28;;;5.40;99.90;;;;;;5050398;28;20029;-71
2021/01/26 06:04:14;;;;;;;10.07;3.42;;;5.40;99.90;;;;;;5049889;28;20429;-71
2021/01/26 06:07:00;;;;;;;17.90;3.97;;;5.30;99.90;;;;;;5048913;28;20508;-71
2021/01/26 06:09:38;;;;;;;12.93;3.40;;;5.40;99.90;;;;;;5049814;28;20037;-71
2021/01/26 06:12:18;;;;;;;18.60;4.57;;;5.40;99.90;;;;;;5049360;28;20537;-71
2021/01/26 06:14:54;;;;;;;20.45;3.50;;;5.40;99.90;;;;;;5046144;28;20078;-71
2021/01/26 06:17:23;;;;;;;22.00;4.20;;;5.30;99.90;;;;;;5044370;28;20037;-71
2021/01/26 06:20:17;;;;;;;15.25;3.60;;;5.40;99.90;;;;;;5048877;28;20712;-71
2021/01/26 06:22:43;;;;;;;16.98;3.60;;;5.30;99.90;;;;;;5045878;28;20114;-72
2021/01/26 06:25:26;;;;;;;16.58;3.25;;;5.30;99.90;;;;;;5048317;28;20021;-71
2021/01/26 06:28:23;;;;;;;22.08;3.83;;;5.30;99.90;;;;;;5031292;28;20055;-72
2021/01/26 06:30:54;;;;;;;12.77;2.88;;;5.30;99.90;;;;;;5044205;28;20022;-72
2021/01/26 06:33:32;;;;;;;15.70;3.17;;;5.40;99.90;;;;;;5045594;28;20393;-72
2021/01/26 06:36:49;;;;;;;21.05;3.90;;;5.40;99.90;;;;;;5046470;28;20377;-72
2021/01/26 06:39:22;;;;;;;10.80;3.03;;;5.50;99.90;;;;;;5031681;28;20470;-71
2021/01/26 06:41:53;;;;;;;;;;;5.40;99.90;;;;;;5047649;28;20040;-71
2021/01/26 06:44:31;;;;;;;12.82;3.00;;;5.40;99.90;;;;;;5044026;28;19952;-72
2021/01/26 06:47:27;;;;;;;12.95;3.58;;;5.40;99.90;;;;;;5048222;28;20037;-71
2021/01/26 06:49:58;;;;;;;16.00;3.10;;;5.40;99.90;;;;;;5049831;28;20401;-71
2021/01/26 06:52:56;;;;;;;14.32;3.50;;;5.40;99.90;;;;;;5044542;28;20167;-71
2021/01/26 06:55:22;;;;;;;14.00;3.60;;;5.40;99.90;;;;;;5022475;28;20497;-71
2021/01/26 06:58:33;;;;;;;19.95;4.07;;;5.40;99.90;;;;;;5049061;28;20024;-72
2021/01/26 07:01:22;;;;;;;12.10;3.00;;;5.30;99.90;;;;;;5046577;28;20459;-72
2021/01/26 07:04:09;;;;;;;12.10;3.10;;;5.40;99.90;;;;;;5050416;28;20096;-72
2021/01/26 07:06:58;;;;;;;10.48;3.25;;;5.40;99.90;;;;;;5049919;28;20031;-72
2021/01/26 07:09:52;;;;;;;14.18;3.85;;;5.40;99.90;;;;;;5040972;28;20123;-71
2021/01/26 07:12:29;;;;;;;14.73;3.25;;;5.40;99.90;;;;;;5046382;28;20106;-71
2021/01/26 07:15:25;;;;;;;12.30;3.03;;;5.40;99.90;;;;;;5049419;28;20025;-72
2021/01/26 07:18:19;;;;;;;14.82;3.30;;;5.50;99.90;;;;;;5043470;28;20158;-71
2021/01/26 07:21:00;;;;;;;18.25;3.45;;;5.50;99.90;;;;;;5029244;28;20040;-72
2021/01/26 07:24:00;;;;;;;10.63;3.05;;;5.50;99.90;;;;;;5047343;28;20033;-72
2021/01/26 07:26:40;;;;;;;11.05;3.20;;;5.40;99.90;;;;;;5045426;28;20027;-72
2021/01/26 07:29:33;;;;;;;12.95;3.22;;;5.40;99.90;;;;;;5045714;28;20063;-72
2021/01/26 07:32:07;;;;;;;13.48;3.30;;;5.40;99.90;;;;;;5047200;28;20025;-71
2021/01/26 07:34:45;;;;;;;12.18;3.03;;;5.40;99.90;;;;;;5046631;28;20385;-72
2021/01/26 07:37:27;;;;;;;11.93;3.38;;;5.50;99.90;;;;;;5052198;28;20108;-71
2021/01/26 07:39:57;;;;;;;10.05;3.50;;;5.40;99.90;;;;;;5040878;28;20018;-71
2021/01/26 07:42:47;;;;;;;14.07;3.30;;;5.40;99.90;;;;;;5046922;28;20039;-71
2021/01/26 07:45:24;;;;;;;16.00;3.55;;;5.40;99.90;;;;;;5027851;28;20021;-72
2021/01/26 07:47:56;;;;;;;17.08;3.72;;;5.40;99.90;;;;;;5035379;28;20073;-72
2021/01/26 07:50:25;;;;;;;14.85;3.08;;;5.30;99.90;;;;;;5023913;28;20021;-72
2021/01/26 07:52:56;;;;;;;12.70;3.40;;;5.40;99.90;;;;;;5028573;28;20025;-72
2021/01/26 07:55:32;;;;;;;20.92;3.90;;;5.50;99.90;;;;;;5027763;28;20440;-73
2021/01/26 07:58:05;;;;;;;18.02;3.50;;;5.40;99.90;;;;;;5044493;28;20045;-72
2021/01/26 08:00:35;;;;;;;15.77;2.85;;;5.50;99.90;;;;;;5040759;28;20072;-72
2021/01/26 08:03:01;;;;;;;15.43;3.50;;;5.40;99.90;;;;;;5041288;28;20504;-72
2021/01/26 08:05:45;;;;;;;18.00;3.50;;;5.40;99.90;;;;;;5044849;28;20520;-71
2021/01/26 08:08:34;;;;;;;10.05;3.35;;;5.40;99.90;;;;;;5045810;28;20079;-72
2021/01/26 08:11:20;;;;;;;15.80;3.83;;;5.50;99.90;;;;;;5023007;28;20032;-71
2021/01/26 08:14:07;;;;;;;18.02;4.00;;;5.50;99.90;;;;;;5045684;28;20048;-72
2021/01/26 08:16:44;;;;;;;15.68;3.70;;;5.50;99.90;;;;;;5039719;28;20022;-71
2021/01/26 08:19:30;;;;;;;20.85;4.00;;;5.60;99.90;;;;;;5044135;28;20044;-71
2021/01/26 08:21:57;;;;;;;15.07;4.13;;;5.50;99.90;;;;;;5043712;28;20032;-71
2021/01/26 08:24:22;;;;;;;19.58;4.65;;;5.60;99.90;;;;;;5045352;28;20446;-72
2021/01/26 08:27:35;;;;;;;14.73;5.85;;;5.60;99.90;;;;;;5040918;28;20091;-71
2021/01/26 08:30:09;;;;;;;22.98;6.47;;;5.60;99.90;;;;;;5005311;28;20063;-71
2021/01/26 08:32:35;;;;;;;21.23;6.30;;;5.50;99.90;;;;;;5043760;28;20124;-72
2021/01/26 08:35:04;;;;;;;20.60;6.15;;;5.50;99.90;;;;;;5043867;28;20033;-71
2021/01/26 08:37:41;;;;;;;23.17;6.57;;;5.50;99.90;;;;;;5036622;28;20105;-71
2021/01/26 08:40:18;;;;;;;23.55;6.63;;;5.50;99.90;;;;;;5025216;28;20409;-70
2021/01/26 08:42:44;;;;;;;21.20;6.72;;;5.40;99.90;;;;;;5028154;28;20029;-71
2021/01/26 08:45:24;;;;;;;23.63;7.90;;;5.50;99.90;;;;;;5047135;28;20026;-71
2021/01/26 08:48:03;;;;;;;22.02;6.07;;;5.50;99.90;;;;;;5032509;28;20151;-71
2021/01/26 08:50:33;;;;;;;28.25;6.95;;;5.40;99.90;;;;;;5045603;28;20025;-71
2021/01/26 08:53:21;;;;;;;19.75;6.55;;;5.40;99.90;;;;;;5046783;28;20033;-71
2021/01/26 08:55:52;;;;;;;20.55;7.75;;;5.40;99.90;;;;;;5051217;28;20072;-71
2021/01/26 08:58:36;;;;;;;24.05;7.50;;;5.40;99.90;;;;;;5046663;28;20086;-71
2021/01/26 09:01:03;;;;;;;24.33;7.60;;;5.40;99.90;;;;;;5050300;28;20036;-71
2021/01/26 09:03:38;;;;;;;21.67;7.75;;;5.50;99.90;;;;;;5048915;28;20024;-70
2021/01/26 09:06:12;;;;;;;23.23;7.85;;;5.40;99.90;;;;;;5033733;28;20021;-71
2021/01/26 09:08:41;;;;;;;23.85;7.75;;;5.50;99.90;;;;;;5048652;28;20120;-71
2021/01/26 09:11:28;;;;;;;28.10;8.18;;;5.40;99.90;;;;;;5046244;28;20031;-71
2021/01/26 09:14:02;;;;;;;27.58;7.95;;;5.40;99.90;;;;;;5048545;28;20051;-71
2021/01/26 09:16:29;;;;;;;27.67;7.88;;;5.50;99.90;;;;;;5045144;28;20028;-72
2021/01/26 09:18:59;;;;;;;28.20;7.22;;;5.50;99.90;;;;;;5048352;28;20075;-71
2021/01/26 09:21:30;;;;;;;25.10;7.20;;;5.50;99.90;;;;;;5039461;28;20539;-70
2021/01/26 09:23:57;;;;;;;30.80;7.35;;;5.40;99.90;;;;;;5046543;28;20029;-71
2021/01/26 09:26:25;;;;;;;21.35;7.93;;;5.40;99.90;;;;;;5049024;28;20033;-71
2021/01/26 09:28:51;;;;;;;22.20;7.75;;;5.40;99.90;;;;;;5050775;28;20033;-71
2021/01/26 09:31:21;;;;;;;49.35;7.90;;;5.40;99.90;;;;;;5032153;28;20074;-71
2021/01/26 09:33:47;;;;;;;24.15;7.13;;;5.40;99.90;;;;;;5043462;28;20033;-71
2021/01/26 09:36:19;;;;;;;20.77;6.18;;;5.40;99.90;;;;;;5047937;28;20029;-70
2021/01/26 09:38:48;;;;;;;22.65;5.32;;;5.40;99.90;;;;;;5048796;28;20054;-71
2021/01/26 09:41:16;;;;;;;21.10;6.43;;;5.40;99.90;;;;;;5047032;28;20523;-71
2021/01/26 09:43:44;;;;;;;23.95;6.30;;;5.50;99.90;;;;;;5046137;28;20071;-71
2021/01/26 09:46:26;;;;;;;22.00;6.40;;;5.50;99.90;;;;;;5046163;28;20497;-71
2021/01/26 09:48:56;;;;;;;23.00;6.37;;;5.50;99.90;;;;;;5046232;28;20044;-71
2021/01/26 09:51:26;;;;;;;23.55;6.63;;;5.50;99.90;;;;;;5046551;28;20025;-71
2021/01/26 09:54:09;;;;;;;24.35;5.85;;;5.60;99.90;;;;;;5045887;28;20025;-71
2021/01/26 09:56:38;;;;;;;25.90;7.10;;;5.60;99.90;;;;;;5046893;28;20032;-71
2021/01/26 09:59:06;;;;;;;18.15;6.18;;;5.60;99.90;;;;;;5046105;28;20056;-71
2021/01/26 10:01:33;;;;;;;27.08;6.65;;;5.70;99.90;;;;;;5048343;28;20024;-71
2021/01/26 10:04:01;;;;;;;26.65;5.88;;;5.60;99.90;;;;;;5048802;28;20033;-70
2021/01/26 10:06:28;;;;;;;15.93;5.88;;;5.60;99.90;;;;;;5048348;28;20646;-71
2021/01/26 10:08:53;;;;;;;23.92;5.18;;;5.70;99.90;;;;;;5049224;28;20044;-71
2021/01/26 10:11:27;;;;;;;22.75;5.00;;;5.70;99.90;;;;;;5049204;28;20083;-71
2021/01/26 10:14:15;;;;;;;16.83;5.10;;;5.80;99.90;;;;;;5024261;28;20021;-71
2021/01/26 10:16:46;;;;;;;23.20;6.22;;;5.80;99.90;;;;;;5041199;28;20021;-71
2021/01/26 10:19:22;;;;;;;25.55;7.07;;;5.90;99.90;;;;;;5047447;28;20071;-70
2021/01/26 10:21:48;;;;;;;15.60;5.85;;;5.90;99.90;;;;;;5046763;28;20082;-71
2021/01/26 10:24:27;;;;;;;20.63;5.75;;;5.90;99.90;;;;;;5044047;28;20043;-70
2021/01/26 10:27:06;;;;;;;20.30;4.82;;;6.00;99.90;;;;;;5037448;28;20473;-69
2021/01/26 10:29:37;;;;;;;22.85;6.00;;;6.00;99.90;;;;;;5048873;28;20033;-75
2021/01/26 10:32:04;;;;;;;20.33;5.72;;;6.00;99.90;;;;;;5046109;28;20018;-71
2021/01/26 10:34:35;;;;;;;15.35;4.90;;;6.00;99.90;;;;;;5043499;28;20393;-71
2021/01/26 10:37:10;;;;;;;17.17;6.10;;;6.00;99.90;;;;;;5047674;28;20144;-71
2021/01/26 10:39:36;;;;;;;19.25;5.13;;;6.00;99.90;;;;;;5044024;28;20061;-72
2021/01/26 10:42:07;;;;;;;15.43;5.28;;;6.00;99.90;;;;;;5046320;28;20464;-71
2021/01/26 10:44:42;;;;;;;16.50;5.10;;;6.00;99.90;;;;;;5048724;28;20033;-71
2021/01/26 10:47:27;;;;;;;20.33;4.35;;;5.90;99.90;;;;;;5044487;28;20535;-70
2021/01/26 10:49:57;;;;;;;22.35;5.53;;;5.90;99.90;;;;;;5045807;28;20095;-70
2021/01/26 10:52:41;;;;;;;20.98;5.50;;;5.90;99.90;;;;;;5043986;28;20891;-71
2021/01/26 10:55:10;;;;;;;19.10;5.85;;;6.00;99.90;;;;;;5047636;28;20029;-71
2021/01/26 10:57:39;;;;;;;20.05;5.28;;;6.00;99.90;;;;;;5045932;28;20588;-72
2021/01/26 11:00:07;;;;;;;14.90;3.88;;;6.10;99.90;;;;;;5045915;28;20432;-71
2021/01/26 11:02:33;;;;;;;16.85;4.43;;;6.10;99.90;;;;;;5047781;28;20418;-71
2021/01/26 11:04:59;;;;;;;19.05;4.50;;;6.20;99.90;;;;;;5044233;28;20114;-71
2021/01/26 11:07:24;;;;;;;18.27;5.38;;;6.30;99.90;;;;;;5043057;28;20377;-72
2021/01/26 11:09:50;;;;;;;13.68;4.82;;;6.40;99.90;;;;;;5046026;28;20021;-72
2021/01/26 11:12:18;;;;;;;21.73;4.53;;;6.40;99.90;;;;;;5041874;28;20025;-72
2021/01/26 11:14:45;;;;;;;25.85;4.93;;;6.40;99.90;;;;;;5044867;28;20029;-72
2021/01/26 11:17:11;;;;;;;10.45;3.97;;;6.50;99.90;;;;;;5045605;28;20100;-72
2021/01/26 11:19:37;;;;;;;14.32;4.10;;;6.50;99.90;;;;;;5042957;28;20029;-72
2021/01/26 11:22:02;;;;;;;14.43;4.57;;;6.50;99.90;;;;;;5049717;28;20037;-71
2021/01/26 11:24:29;;;;;;;18.33;4.72;;;6.50;99.90;;;;;;5028344;28;20156;-71
2021/01/26 11:26:54;;;;;;;13.73;3.38;;;6.60;99.90;;;;;;5047283;28;20123;-72
2021/01/26 11:29:21;;;;;;;15.00;4.10;;;6.70;99.90;;;;;;5040636;28;20025;-71
2021/01/26 11:31:46;;;;;;;15.57;4.43;;;6.80;99.90;;;;;;5036238;28;20033;-71
2021/01/26 11:34:12;;;;;;;11.80;3.88;;;6.90;99.90;;;;;;5046184;28;20021;-72
2021/01/26 11:36:38;;;;;;;11.98;4.43;;;6.90;99.90;;;;;;5045058;28;20025;-72
2021/01/26 11:39:04;;;;;;;12.85;4.15;;;6.90;99.90;;;;;;5046040;28;20146;-71
2021/01/26 11:41:30;;;;;;;14.25;4.38;;;6.90;99.90;;;;;;5046492;28;20036;-71
2021/01/26 11:43:57;;;;;;;7.95;4.07;;;6.90;99.90;;;;;;5044107;28;20021;-72
2021/01/26 11:46:23;;;;;;;15.07;4.03;;;7.00;99.90;;;;;;5044461;28;20527;-71
2021/01/26 11:48:49;;;;;;;12.65;3.17;;;7.00;99.90;;;;;;5044791;28;20461;-71
2021/01/26 11:51:15;;;;;;;9.88;2.83;;;6.90;99.90;;;;;;5047726;28;20029;-72
2021/01/26 11:53:40;;;;;;;18.45;3.47;;;6.90;99.90;;;;;;5045043;28;20029;-72
2021/01/26 11:56:06;;;;;;;14.25;3.22;;;6.90;99.90;;;;;;5031980;28;20473;-71
2021/01/26 11:58:32;;;;;;;12.00;3.05;;;6.90;99.90;;;;;;5041629;28;20043;-70
2021/01/26 12:00:58;;;;;;;10.90;3.78;;;6.90;99.90;;;;;;5040598;28;20052;-70
2021/01/26 12:03:24;;;;;;;11.63;3.70;;;7.00;99.90;;;;;;5044375;28;20037;-70
2021/01/26 12:05:49;;;;;;;16.77;3.60;;;7.00;99.90;;;;;;5043044;28;20028;-70
2021/01/26 12:08:15;;;;;;;8.35;3.00;;;7.00;99.90;;;;;;5041910;28;20029;-70
2021/01/26 12:10:41;;;;;;;4.68;2.95;;;7.00;99.90;;;;;;5047564;28;20539;-71
2021/01/26 12:13:08;;;;;;;14.63;3.53;;;7.10;99.90;;;;;;5043529;28;20034;-71
2021/01/26 12:15:37;;;;;;;12.82;3.47;;;7.10;99.90;;;;;;5029617;28;20024;-72
2021/01/26 12:18:03;;;;;;;15.80;3.25;;;7.10;99.90;;;;;;5045326;28;20115;-71
2021/01/26 12:20:30;;;;;;;9.93;3.53;;;7.20;99.90;;;;;;5025445;28;20065;-72
2021/01/26 12:22:57;;;;;;;16.85;4.60;;;7.20;99.90;;;;;;5048264;28;20469;-72
2021/01/26 12:25:24;;;;;;;15.15;4.97;;;7.30;99.90;;;;;;5029687;28;20025;-72
2021/01/26 12:27:49;;;;;;;13.45;5.97;;;7.30;99.90;;;;;;5040067;28;20040;-72
2021/01/26 12:30:17;;;;;;;15.60;5.43;;;7.30;99.90;;;;;;5028127;28;20025;-72
2021/01/26 12:32:43;;;;;;;12.07;5.55;;;7.30;99.90;;;;;;5048513;28;20477;-72
2021/01/26 12:35:40;;;;;;;15.32;5.57;;;7.10;99.90;;;;;;5046436;28;20029;-72
2021/01/26 12:38:08;;;;;;;14.63;5.13;;;7.10;99.90;;;;;;5023583;28;20516;-72
2021/01/26 12:40:34;;;;;;;12.95;5.63;;;7.10;99.90;;;;;;5044739;28;20488;-72
2021/01/26 12:43:00;;;;;;;14.73;5.72;;;7.20;99.90;;;;;;5043086;28;20033;-72
2021/01/26 12:45:28;;;;;;;11.13;5.65;;;7.20;99.90;;;;;;5045766;28;20056;-73
2021/01/26 12:47:55;;;;;;;16.60;5.97;;;7.20;99.90;;;;;;5045603;28;20045;-72
2021/01/26 12:50:25;;;;;;;10.52;5.78;;;7.20;99.90;;;;;;5045405;28;20043;-72
2021/01/26 12:52:51;;;;;;;16.85;5.65;;;7.30;99.90;;;;;;5028499;28;20025;-72
2021/01/26 12:55:17;;;;;;;9.75;5.20;;;7.20;99.90;;;;;;5023798;28;20095;-72
2021/01/26 12:57:43;;;;;;;15.70;5.70;;;7.10;99.90;;;;;;5044601;28;20705;-72
2021/01/26 13:00:11;;;;;;;11.68;4.75;;;7.20;99.90;;;;;;5046254;28;20393;-72
2021/01/26 13:02:37;;;;;;;14.07;5.38;;;7.00;99.90;;;;;;5039940;28;20017;-72
2021/01/26 13:05:04;;;;;;;10.35;5.07;;;7.10;99.90;;;;;;5037814;28;20121;-72
2021/01/26 13:07:30;;;;;;;10.30;4.80;;;7.20;99.90;;;;;;5046049;28;20014;-72
2021/01/26 13:09:55;;;;;;;17.30;5.00;;;7.20;99.90;;;;;;5042573;28;20036;-72
2021/01/26 13:12:21;;;;;;;17.92;5.45;;;7.30;99.90;;;;;;5045018;28;20036;-73
2021/01/26 13:14:47;;;;;;;16.90;4.72;;;7.30;99.90;;;;;;5042571;28;20021;-72
2021/01/26 13:17:12;;;;;;;21.67;5.40;;;7.40;99.90;;;;;;5040381;28;20420;-72
2021/01/26 13:19:38;;;;;;;16.27;6.38;;;7.40;99.90;;;;;;5042890;28;20128;-72